sensor_id;sensor_type;location;lat;lon;timestamp;temperature;humidity
7194;DHT22;3638;48.820;9.244;2023-02-26T00:01:30;0.60;99.90
7194;DHT22;3638;48.820;9.244;2023-02-26T00:04:00;0.60;99.90
7194;DHT22;3638;48.820;9.244;2023-02-26T00:06:33;0.60;99.90
7194;DHT22;3638;48.820;9.244;2023-02-26T00:09:02;0.60;99.90
7194;DHT22;3638;48.820;9.244;2023-02-26T00:11:30;0.70;99.90
7194;DHT22;3638;48.820;9.244;2023-02-26T00:13:58;0.70;99.90
7194;DHT22;3638;48.820;9.244;2023-02-26T00:16:28;0.70;99.90
7194;DHT22;3638;48.820;9.244;2023-02-26T00:18:58;0.60;99.90
7194;DHT22;3638;48.820;9.244;2023-02-26T00:21:27;0.60;99.90
7194;DHT22;3638;48.820;9.244;2023-02-26T00:23:55;0.60;99.90
7194;DHT22;3638;48.820;9.244;2023-02-26T00:26:24;0.50;99.90
7194;DHT22;3638;48.820;9.244;2023-02-26T00:28:53;0.50;99.90
7194;DHT22;3638;48.820;9.244;2023-02-26T00:31:22;0.40;99.90
7194;DHT22;3638;48.820;9.244;2023-02-26T00:33:50;0.40;99.90
7194;DHT22;3638;48.820;9.244;2023-02-26T00:36:23;0.30;99.90
7194;DHT22;3638;48.820;9.244;2023-02-26T00:39:01;0.30;99.90
7194;DHT22;3638;48.820;9.244;2023-02-26T00:41:33;0.30;99.90
7194;DHT22;3638;48.820;9.244;2023-02-26T00:44:03;0.20;99.90
7194;DHT22;3638;48.820;9.244;2023-02-26T00:46:36;0.20;99.90
7194;DHT22;3638;48.820;9.244;2023-02-26T00:49:15;0.10;99.90
7194;DHT22;3638;48.820;9.244;2023-02-26T00:51:48;0.10;99.90
7194;DHT22;3638;48.820;9.244;2023-02-26T00:54:19;0.10;99.90
7194;DHT22;3638;48.820;9.244;2023-02-26T00:56:48;0.10;99.90
7194;DHT22;3638;48.820;9.244;2023-02-26T00:59:17;0.20;99.90
7194;DHT22;3638;48.820;9.244;2023-02-26T01:01:44;0.10;99.90
7194;DHT22;3638;48.820;9.244;2023-02-26T01:04:12;0.10;99.90
7194;DHT22;3638;48.820;9.244;2023-02-26T01:06:42;0.10;99.90
7194;DHT22;3638;48.820;9.244;2023-02-26T01:09:16;0.00;99.90
7194;DHT22;3638;48.820;9.244;2023-02-26T01:11:49;0.00;99.90
7194;DHT22;3638;48.820;9.244;2023-02-26T01:14:19;-0.10;99.90
7194;DHT22;3638;48.820;9.244;2023-02-26T01:16:51;-0.10;99.90
7194;DHT22;3638;48.820;9.244;2023-02-26T01:19:29;-0.20;99.90
7194;DHT22;3638;48.820;9.244;2023-02-26T01:22:03;-0.30;99.90
7194;DHT22;3638;48.820;9.244;2023-02-26T01:24:33;-0.30;99.90
7194;DHT22;3638;48.820;9.244;2023-02-26T01:27:01;-0.30;99.90
7194;DHT22;3638;48.820;9.244;2023-02-26T01:29:30;-0.40;99.90
7194;DHT22;3638;48.820;9.244;2023-02-26T01:32:03;-0.40;99.90
7194;DHT22;3638;48.820;9.244;2023-02-26T01:34:36;-0.40;99.90
7194;DHT22;3638;48.820;9.244;2023-02-26T01:37:14;-0.50;99.90
7194;DHT22;3638;48.820;9.244;2023-02-26T01:39:59;-0.60;99.90
7194;DHT22;3638;48.820;9.244;2023-02-26T01:42:35;-0.60;99.90
7194;DHT22;3638;48.820;9.244;2023-02-26T01:45:11;-0.70;99.90
7194;DHT22;3638;48.820;9.244;2023-02-26T01:47:42;-0.70;99.90
7194;DHT22;3638;48.820;9.244;2023-02-26T01:50:17;-0.70;99.90
7194;DHT22;3638;48.820;9.244;2023-02-26T01:55:50;-0.80;99.90
7194;DHT22;3638;48.820;9.244;2023-02-26T01:58:20;-0.80;99.90
7194;DHT22;3638;48.820;9.244;2023-02-26T02:00:49;-0.90;99.90
7194;DHT22;3638;48.820;9.244;2023-02-26T02:03:16;-0.80;99.90
7194;DHT22;3638;48.820;9.244;2023-02-26T02:05:46;-0.90;99.90
7194;DHT22;3638;48.820;9.244;2023-02-26T02:08:15;-0.80;99.90
7194;DHT22;3638;48.820;9.244;2023-02-26T02:10:44;-0.90;99.90
7194;DHT22;3638;48.820;9.244;2023-02-26T02:13:22;-0.90;99.90
7194;DHT22;3638;48.820;9.244;2023-02-26T02:16:01;-0.90;99.90
7194;DHT22;3638;48.820;9.244;2023-02-26T02:18:44;-1.00;99.90
7194;DHT22;3638;48.820;9.244;2023-02-26T02:21:31;-0.90;99.90
7194;DHT22;3638;48.820;9.244;2023-02-26T02:24:10;-1.00;99.90
7194;DHT22;3638;48.820;9.244;2023-02-26T02:26:58;-1.00;99.90
7194;DHT22;3638;48.820;9.244;2023-02-26T02:30:02;-1.00;99.90
7194;DHT22;3638;48.820;9.244;2023-02-26T02:32:38;-1.00;99.90
7194;DHT22;3638;48.820;9.244;2023-02-26T02:35:13;-1.00;99.90
7194;DHT22;3638;48.820;9.244;2023-02-26T02:37:47;-1.00;99.90
7194;DHT22;3638;48.820;9.244;2023-02-26T02:40:24;-1.10;99.90
7194;DHT22;3638;48.820;9.244;2023-02-26T02:42:57;-1.10;99.90
7194;DHT22;3638;48.820;9.244;2023-02-26T02:45:31;-1.30;99.90
7194;DHT22;3638;48.820;9.244;2023-02-26T02:48:08;-1.40;99.90
7194;DHT22;3638;48.820;9.244;2023-02-26T02:50:40;-1.40;99.90
7194;DHT22;3638;48.820;9.244;2023-02-26T02:53:14;-1.50;99.90
7194;DHT22;3638;48.820;9.244;2023-02-26T02:55:47;-1.50;99.90
7194;DHT22;3638;48.820;9.244;2023-02-26T02:58:21;-1.50;99.90
7194;DHT22;3638;48.820;9.244;2023-02-26T03:00:53;-1.60;99.90
7194;DHT22;3638;48.820;9.244;2023-02-26T03:03:26;-1.60;99.90
7194;DHT22;3638;48.820;9.244;2023-02-26T03:05:56;-1.70;99.90
7194;DHT22;3638;48.820;9.244;2023-02-26T03:08:27;-1.70;99.90
7194;DHT22;3638;48.820;9.244;2023-02-26T03:10:55;-1.70;99.90
7194;DHT22;3638;48.820;9.244;2023-02-26T03:13:24;-1.80;99.90
7194;DHT22;3638;48.820;9.244;2023-02-26T03:16:03;-1.70;99.90
7194;DHT22;3638;48.820;9.244;2023-02-26T03:18:44;-1.70;99.90
7194;DHT22;3638;48.820;9.244;2023-02-26T03:21:21;-1.60;99.90
7194;DHT22;3638;48.820;9.244;2023-02-26T03:23:58;-1.60;99.90
7194;DHT22;3638;48.820;9.244;2023-02-26T03:26:31;-1.50;99.90
7194;DHT22;3638;48.820;9.244;2023-02-26T03:29:04;-1.40;99.90
7194;DHT22;3638;48.820;9.244;2023-02-26T03:31:36;-1.50;99.90
7194;DHT22;3638;48.820;9.244;2023-02-26T03:34:12;-1.40;99.90
7194;DHT22;3638;48.820;9.244;2023-02-26T03:36:45;-1.30;99.90
7194;DHT22;3638;48.820;9.244;2023-02-26T03:39:17;-1.30;99.90
7194;DHT22;3638;48.820;9.244;2023-02-26T03:41:51;-1.30;99.90
7194;DHT22;3638;48.820;9.244;2023-02-26T03:44:23;-1.30;99.90
7194;DHT22;3638;48.820;9.244;2023-02-26T03:46:56;-1.40;99.90
7194;DHT22;3638;48.820;9.244;2023-02-26T03:49:30;-1.30;99.90
7194;DHT22;3638;48.820;9.244;2023-02-26T03:51:59;-1.30;99.90
7194;DHT22;3638;48.820;9.244;2023-02-26T03:54:29;-1.30;99.90
7194;DHT22;3638;48.820;9.244;2023-02-26T03:56:57;-1.40;99.90
7194;DHT22;3638;48.820;9.244;2023-02-26T03:59:24;-1.40;99.90
7194;DHT22;3638;48.820;9.244;2023-02-26T04:01:55;-1.40;99.90
7194;DHT22;3638;48.820;9.244;2023-02-26T04:04:29;-1.40;99.90
7194;DHT22;3638;48.820;9.244;2023-02-26T04:06:58;-1.40;99.90
7194;DHT22;3638;48.820;9.244;2023-02-26T04:09:26;-1.40;99.90
7194;DHT22;3638;48.820;9.244;2023-02-26T04:11:55;-1.50;99.90
7194;DHT22;3638;48.820;9.244;2023-02-26T04:14:22;-1.50;99.90
7194;DHT22;3638;48.820;9.244;2023-02-26T04:16:49;-1.50;99.90
7194;DHT22;3638;48.820;9.244;2023-02-26T04:19:16;-1.50;99.90
7194;DHT22;3638;48.820;9.244;2023-02-26T04:21:44;-1.40;99.90
7194;DHT22;3638;48.820;9.244;2023-02-26T04:24:12;-1.50;99.90
7194;DHT22;3638;48.820;9.244;2023-02-26T04:26:39;-1.40;99.90
7194;DHT22;3638;48.820;9.244;2023-02-26T04:29:05;-1.40;99.90
7194;DHT22;3638;48.820;9.244;2023-02-26T04:31:32;-1.50;99.90
7194;DHT22;3638;48.820;9.244;2023-02-26T04:33:59;-1.60;99.90
7194;DHT22;3638;48.820;9.244;2023-02-26T04:36:26;-1.60;99.90
7194;DHT22;3638;48.820;9.244;2023-02-26T04:38:54;-1.70;99.90
7194;DHT22;3638;48.820;9.244;2023-02-26T04:41:21;-1.80;99.90
7194;DHT22;3638;48.820;9.244;2023-02-26T04:43:48;-1.80;99.90
7194;DHT22;3638;48.820;9.244;2023-02-26T04:46:15;-2.00;99.90
7194;DHT22;3638;48.820;9.244;2023-02-26T04:48:42;-2.10;99.90
7194;DHT22;3638;48.820;9.244;2023-02-26T04:51:09;-2.10;99.90
7194;DHT22;3638;48.820;9.244;2023-02-26T04:53:35;-2.10;99.90
7194;DHT22;3638;48.820;9.244;2023-02-26T04:56:04;-2.70;99.90
7194;DHT22;3638;48.820;9.244;2023-02-26T04:58:32;-2.00;99.90
7194;DHT22;3638;48.820;9.244;2023-02-26T05:00:59;-2.00;99.90
7194;DHT22;3638;48.820;9.244;2023-02-26T05:03:25;-2.00;99.90
7194;DHT22;3638;48.820;9.244;2023-02-26T05:05:52;-2.10;99.90
7194;DHT22;3638;48.820;9.244;2023-02-26T05:08:19;-2.10;99.90
7194;DHT22;3638;48.820;9.244;2023-02-26T05:10:46;-2.10;99.90
7194;DHT22;3638;48.820;9.244;2023-02-26T05:13:15;-2.10;99.90
7194;DHT22;3638;48.820;9.244;2023-02-26T05:15:41;-2.20;99.90
7194;DHT22;3638;48.820;9.244;2023-02-26T05:18:08;-2.20;99.90
7194;DHT22;3638;48.820;9.244;2023-02-26T05:20:35;-2.20;99.90
7194;DHT22;3638;48.820;9.244;2023-02-26T05:23:02;-2.20;99.90
7194;DHT22;3638;48.820;9.244;2023-02-26T05:25:29;-2.10;99.90
7194;DHT22;3638;48.820;9.244;2023-02-26T05:27:56;-2.20;99.90
7194;DHT22;3638;48.820;9.244;2023-02-26T05:30:25;-2.10;99.90
7194;DHT22;3638;48.820;9.244;2023-02-26T05:32:51;-2.20;99.90
7194;DHT22;3638;48.820;9.244;2023-02-26T05:35:19;-2.20;99.90
7194;DHT22;3638;48.820;9.244;2023-02-26T05:37:46;-2.10;99.90
7194;DHT22;3638;48.820;9.244;2023-02-26T05:40:13;-2.10;99.90
7194;DHT22;3638;48.820;9.244;2023-02-26T05:42:40;-2.10;99.90
7194;DHT22;3638;48.820;9.244;2023-02-26T05:45:07;-2.10;99.90
7194;DHT22;3638;48.820;9.244;2023-02-26T05:47:36;-2.10;99.90
7194;DHT22;3638;48.820;9.244;2023-02-26T05:50:05;-2.10;99.90
7194;DHT22;3638;48.820;9.244;2023-02-26T05:52:32;-2.20;99.90
7194;DHT22;3638;48.820;9.244;2023-02-26T05:54:59;-2.30;99.90
7194;DHT22;3638;48.820;9.244;2023-02-26T05:57:27;-2.30;99.90
7194;DHT22;3638;48.820;9.244;2023-02-26T05:59:54;-2.50;99.90
7194;DHT22;3638;48.820;9.244;2023-02-26T06:02:21;-2.50;99.90
7194;DHT22;3638;48.820;9.244;2023-02-26T06:04:49;-2.60;99.90
7194;DHT22;3638;48.820;9.244;2023-02-26T06:07:16;-2.60;99.90
7194;DHT22;3638;48.820;9.244;2023-02-26T06:09:43;-2.60;99.90
7194;DHT22;3638;48.820;9.244;2023-02-26T06:12:09;-2.50;99.90
7194;DHT22;3638;48.820;9.244;2023-02-26T06:14:36;-2.50;99.90
7194;DHT22;3638;48.820;9.244;2023-02-26T06:17:03;-2.50;99.90
7194;DHT22;3638;48.820;9.244;2023-02-26T06:19:31;-2.50;99.90
7194;DHT22;3638;48.820;9.244;2023-02-26T06:21:59;-2.50;99.90
7194;DHT22;3638;48.820;9.244;2023-02-26T06:24:26;-2.40;99.90
7194;DHT22;3638;48.820;9.244;2023-02-26T06:26:53;-2.40;99.90
7194;DHT22;3638;48.820;9.244;2023-02-26T06:29:20;-2.40;99.90
7194;DHT22;3638;48.820;9.244;2023-02-26T06:31:48;-2.40;99.90
7194;DHT22;3638;48.820;9.244;2023-02-26T06:34:15;-2.40;99.90
7194;DHT22;3638;48.820;9.244;2023-02-26T06:36:43;-2.30;99.90
7194;DHT22;3638;48.820;9.244;2023-02-26T06:39:11;-2.30;99.90
7194;DHT22;3638;48.820;9.244;2023-02-26T06:41:38;-2.20;99.90
7194;DHT22;3638;48.820;9.244;2023-02-26T06:44:05;-2.20;99.90
7194;DHT22;3638;48.820;9.244;2023-02-26T06:46:32;-2.10;99.90
7194;DHT22;3638;48.820;9.244;2023-02-26T06:48:58;-2.00;99.90
7194;DHT22;3638;48.820;9.244;2023-02-26T06:51:25;-2.00;99.90
7194;DHT22;3638;48.820;9.244;2023-02-26T06:53:52;-2.00;99.90
7194;DHT22;3638;48.820;9.244;2023-02-26T06:56:20;-2.00;99.90
7194;DHT22;3638;48.820;9.244;2023-02-26T06:58:47;-1.90;99.90
7194;DHT22;3638;48.820;9.244;2023-02-26T07:01:14;-1.90;99.90
7194;DHT22;3638;48.820;9.244;2023-02-26T07:03:42;-1.80;99.90
7194;DHT22;3638;48.820;9.244;2023-02-26T07:06:09;-1.80;99.90
7194;DHT22;3638;48.820;9.244;2023-02-26T07:08:38;-1.80;99.90
7194;DHT22;3638;48.820;9.244;2023-02-26T07:11:05;-1.60;99.90
7194;DHT22;3638;48.820;9.244;2023-02-26T07:13:34;-1.50;99.90
7194;DHT22;3638;48.820;9.244;2023-02-26T07:16:01;-1.40;99.90
7194;DHT22;3638;48.820;9.244;2023-02-26T07:18:28;-1.20;99.90
7194;DHT22;3638;48.820;9.244;2023-02-26T07:20:55;-1.10;99.90
7194;DHT22;3638;48.820;9.244;2023-02-26T07:23:22;-1.00;99.90
7194;DHT22;3638;48.820;9.244;2023-02-26T07:25:49;-0.70;99.90
7194;DHT22;3638;48.820;9.244;2023-02-26T07:28:16;-0.20;99.90
7194;DHT22;3638;48.820;9.244;2023-02-26T07:30:44;0.40;99.90
7194;DHT22;3638;48.820;9.244;2023-02-26T07:33:11;0.60;99.90
7194;DHT22;3638;48.820;9.244;2023-02-26T07:35:38;0.40;99.90
7194;DHT22;3638;48.820;9.244;2023-02-26T07:38:05;0.30;99.90
7194;DHT22;3638;48.820;9.244;2023-02-26T07:40:32;0.30;99.90
7194;DHT22;3638;48.820;9.244;2023-02-26T07:42:59;0.30;99.90
7194;DHT22;3638;48.820;9.244;2023-02-26T07:45:26;0.20;99.90
7194;DHT22;3638;48.820;9.244;2023-02-26T07:47:54;0.20;99.90
7194;DHT22;3638;48.820;9.244;2023-02-26T07:50:21;0.10;99.90
7194;DHT22;3638;48.820;9.244;2023-02-26T07:52:50;-0.10;99.90
7194;DHT22;3638;48.820;9.244;2023-02-26T07:55:17;-0.20;99.90
7194;DHT22;3638;48.820;9.244;2023-02-26T07:57:44;-0.20;99.90
7194;DHT22;3638;48.820;9.244;2023-02-26T08:00:13;-0.10;99.90
7194;DHT22;3638;48.820;9.244;2023-02-26T08:02:41;0.10;99.90
7194;DHT22;3638;48.820;9.244;2023-02-26T08:05:09;0.60;99.90
7194;DHT22;3638;48.820;9.244;2023-02-26T08:07:36;0.60;99.90
7194;DHT22;3638;48.820;9.244;2023-02-26T08:10:03;0.60;99.90
7194;DHT22;3638;48.820;9.244;2023-02-26T08:12:31;0.70;99.90
7194;DHT22;3638;48.820;9.244;2023-02-26T08:14:58;0.60;99.90
7194;DHT22;3638;48.820;9.244;2023-02-26T08:17:25;0.60;99.90
7194;DHT22;3638;48.820;9.244;2023-02-26T08:19:52;0.40;99.90
7194;DHT22;3638;48.820;9.244;2023-02-26T08:22:20;0.10;99.90
7194;DHT22;3638;48.820;9.244;2023-02-26T08:24:48;0.10;99.90
7194;DHT22;3638;48.820;9.244;2023-02-26T08:27:15;0.30;99.90
7194;DHT22;3638;48.820;9.244;2023-02-26T08:29:42;0.30;99.90
7194;DHT22;3638;48.820;9.244;2023-02-26T08:32:10;0.10;99.90
7194;DHT22;3638;48.820;9.244;2023-02-26T08:34:37;0.10;99.90
7194;DHT22;3638;48.820;9.244;2023-02-26T08:37:04;0.20;99.90
7194;DHT22;3638;48.820;9.244;2023-02-26T08:39:35;0.30;99.90
7194;DHT22;3638;48.820;9.244;2023-02-26T08:42:03;0.40;99.90
7194;DHT22;3638;48.820;9.244;2023-02-26T08:44:30;0.20;99.90
7194;DHT22;3638;48.820;9.244;2023-02-26T08:46:58;0.10;99.90
7194;DHT22;3638;48.820;9.244;2023-02-26T08:49:25;0.00;99.90
7194;DHT22;3638;48.820;9.244;2023-02-26T08:51:52;0.00;99.90
7194;DHT22;3638;48.820;9.244;2023-02-26T08:54:18;0.00;99.90
7194;DHT22;3638;48.820;9.244;2023-02-26T08:56:47;-0.10;99.90
7194;DHT22;3638;48.820;9.244;2023-02-26T08:59:14;0.00;99.90
7194;DHT22;3638;48.820;9.244;2023-02-26T09:01:41;0.00;99.90
7194;DHT22;3638;48.820;9.244;2023-02-26T09:04:07;0.10;99.90
7194;DHT22;3638;48.820;9.244;2023-02-26T09:06:35;0.40;99.90
7194;DHT22;3638;48.820;9.244;2023-02-26T09:09:02;0.90;99.90
7194;DHT22;3638;48.820;9.244;2023-02-26T09:11:29;0.90;99.90
7194;DHT22;3638;48.820;9.244;2023-02-26T09:13:58;0.60;99.90
7194;DHT22;3638;48.820;9.244;2023-02-26T09:16:26;0.60;99.90
7194;DHT22;3638;48.820;9.244;2023-02-26T09:18:53;0.80;99.90
7194;DHT22;3638;48.820;9.244;2023-02-26T09:21:20;0.80;99.90
7194;DHT22;3638;48.820;9.244;2023-02-26T09:23:47;0.80;99.90
7194;DHT22;3638;48.820;9.244;2023-02-26T09:26:15;0.30;99.90
7194;DHT22;3638;48.820;9.244;2023-02-26T09:28:41;0.60;99.90
7194;DHT22;3638;48.820;9.244;2023-02-26T09:31:10;0.60;99.90
7194;DHT22;3638;48.820;9.244;2023-02-26T09:33:37;0.70;99.90
7194;DHT22;3638;48.820;9.244;2023-02-26T09:36:04;0.80;99.90
7194;DHT22;3638;48.820;9.244;2023-02-26T09:38:32;0.90;99.90
7194;DHT22;3638;48.820;9.244;2023-02-26T09:41:02;1.00;99.90
7194;DHT22;3638;48.820;9.244;2023-02-26T09:46:43;0.50;99.90
7194;DHT22;3638;48.820;9.244;2023-02-26T09:49:19;0.70;99.90
7194;DHT22;3638;48.820;9.244;2023-02-26T09:51:53;0.70;99.90
7194;DHT22;3638;48.820;9.244;2023-02-26T09:54:25;0.60;99.90
7194;DHT22;3638;48.820;9.244;2023-02-26T09:56:58;0.80;99.90
7194;DHT22;3638;48.820;9.244;2023-02-26T09:59:28;0.80;99.90
7194;DHT22;3638;48.820;9.244;2023-02-26T10:02:03;0.80;99.90
7194;DHT22;3638;48.820;9.244;2023-02-26T10:04:48;1.00;99.90
7194;DHT22;3638;48.820;9.244;2023-02-26T10:07:23;1.30;99.90
7194;DHT22;3638;48.820;9.244;2023-02-26T10:10:02;1.30;99.90
7194;DHT22;3638;48.820;9.244;2023-02-26T10:12:36;1.00;99.90
7194;DHT22;3638;48.820;9.244;2023-02-26T10:15:10;0.90;99.90
7194;DHT22;3638;48.820;9.244;2023-02-26T10:17:50;0.90;99.90
7194;DHT22;3638;48.820;9.244;2023-02-26T10:20:26;0.80;99.90
7194;DHT22;3638;48.820;9.244;2023-02-26T10:22:59;0.90;99.90
7194;DHT22;3638;48.820;9.244;2023-02-26T10:25:33;1.00;99.90
7194;DHT22;3638;48.820;9.244;2023-02-26T10:28:10;0.90;99.90
7194;DHT22;3638;48.820;9.244;2023-02-26T10:30:52;0.90;99.90
7194;DHT22;3638;48.820;9.244;2023-02-26T10:33:33;1.00;99.90
7194;DHT22;3638;48.820;9.244;2023-02-26T10:36:11;1.10;99.90
7194;DHT22;3638;48.820;9.244;2023-02-26T10:38:41;1.30;99.90
7194;DHT22;3638;48.820;9.244;2023-02-26T10:41:12;1.10;99.90
7194;DHT22;3638;48.820;9.244;2023-02-26T10:43:42;1.20;99.90
7194;DHT22;3638;48.820;9.244;2023-02-26T10:46:20;1.20;99.90
7194;DHT22;3638;48.820;9.244;2023-02-26T10:49:02;1.30;99.90
7194;DHT22;3638;48.820;9.244;2023-02-26T10:51:44;1.10;99.90
7194;DHT22;3638;48.820;9.244;2023-02-26T10:54:14;1.10;99.90
7194;DHT22;3638;48.820;9.244;2023-02-26T10:56:43;1.10;99.90
7194;DHT22;3638;48.820;9.244;2023-02-26T10:59:10;1.00;99.90
7194;DHT22;3638;48.820;9.244;2023-02-26T11:01:37;0.90;99.90
7194;DHT22;3638;48.820;9.244;2023-02-26T11:04:10;1.00;99.90
7194;DHT22;3638;48.820;9.244;2023-02-26T11:06:40;0.90;99.90
7194;DHT22;3638;48.820;9.244;2023-02-26T11:09:17;1.00;99.90
7194;DHT22;3638;48.820;9.244;2023-02-26T11:11:50;1.20;99.90
7194;DHT22;3638;48.820;9.244;2023-02-26T11:14:18;1.30;99.90
7194;DHT22;3638;48.820;9.244;2023-02-26T11:16:48;1.40;99.90
7194;DHT22;3638;48.820;9.244;2023-02-26T11:19:24;1.60;99.90
7194;DHT22;3638;48.820;9.244;2023-02-26T11:21:53;1.50;99.90
7194;DHT22;3638;48.820;9.244;2023-02-26T11:24:27;1.70;99.90
7194;DHT22;3638;48.820;9.244;2023-02-26T11:26:57;2.00;99.90
7194;DHT22;3638;48.820;9.244;2023-02-26T11:29:34;2.30;99.90
7194;DHT22;3638;48.820;9.244;2023-02-26T11:32:04;2.30;99.90
7194;DHT22;3638;48.820;9.244;2023-02-26T11:34:33;2.20;99.90
7194;DHT22;3638;48.820;9.244;2023-02-26T11:37:01;2.10;99.90
7194;DHT22;3638;48.820;9.244;2023-02-26T11:39:33;2.10;99.90
7194;DHT22;3638;48.820;9.244;2023-02-26T11:42:03;2.10;99.90
7194;DHT22;3638;48.820;9.244;2023-02-26T11:44:34;2.10;99.90
7194;DHT22;3638;48.820;9.244;2023-02-26T11:47:06;2.60;99.90
7194;DHT22;3638;48.820;9.244;2023-02-26T11:49:42;1.60;99.90
7194;DHT22;3638;48.820;9.244;2023-02-26T11:52:20;2.20;99.90
7194;DHT22;3638;48.820;9.244;2023-02-26T11:54:49;2.00;99.90
7194;DHT22;3638;48.820;9.244;2023-02-26T11:57:26;1.90;99.90
7194;DHT22;3638;48.820;9.244;2023-02-26T11:59:56;1.50;99.90
7194;DHT22;3638;48.820;9.244;2023-02-26T12:02:26;1.50;99.90
7194;DHT22;3638;48.820;9.244;2023-02-26T12:05:00;1.50;99.90
7194;DHT22;3638;48.820;9.244;2023-02-26T12:07:30;1.50;99.90
7194;DHT22;3638;48.820;9.244;2023-02-26T12:09:57;1.60;99.90
7194;DHT22;3638;48.820;9.244;2023-02-26T12:12:34;1.60;99.90
7194;DHT22;3638;48.820;9.244;2023-02-26T12:15:29;1.40;99.90
7194;DHT22;3638;48.820;9.244;2023-02-26T12:21:06;1.40;99.90
7194;DHT22;3638;48.820;9.244;2023-02-26T12:26:49;1.80;99.90
7194;DHT22;3638;48.820;9.244;2023-02-26T12:29:54;1.70;99.90
7194;DHT22;3638;48.820;9.244;2023-02-26T12:32:47;1.70;99.90
7194;DHT22;3638;48.820;9.244;2023-02-26T12:35:49;1.80;99.90
7194;DHT22;3638;48.820;9.244;2023-02-26T12:38:29;1.90;99.90
7194;DHT22;3638;48.820;9.244;2023-02-26T12:44:13;1.60;99.90
7194;DHT22;3638;48.820;9.244;2023-02-26T12:46:56;1.80;99.90
7194;DHT22;3638;48.820;9.244;2023-02-26T12:49:53;1.80;99.90
7194;DHT22;3638;48.820;9.244;2023-02-26T12:52:57;1.90;99.90
7194;DHT22;3638;48.820;9.244;2023-02-26T12:55:54;2.10;99.90
7194;DHT22;3638;48.820;9.244;2023-02-26T12:58:38;2.10;99.90
7194;DHT22;3638;48.820;9.244;2023-02-26T13:01:30;2.30;99.90
7194;DHT22;3638;48.820;9.244;2023-02-26T13:04:30;2.40;99.90
7194;DHT22;3638;48.820;9.244;2023-02-26T13:07:31;2.40;99.90
7194;DHT22;3638;48.820;9.244;2023-02-26T13:10:14;2.10;99.90
7194;DHT22;3638;48.820;9.244;2023-02-26T13:12:53;2.10;99.90
7194;DHT22;3638;48.820;9.244;2023-02-26T13:15:38;2.20;99.90
7194;DHT22;3638;48.820;9.244;2023-02-26T13:18:19;2.20;99.90
7194;DHT22;3638;48.820;9.244;2023-02-26T13:20:56;2.30;99.90
7194;DHT22;3638;48.820;9.244;2023-02-26T13:23:30;2.40;99.90
7194;DHT22;3638;48.820;9.244;2023-02-26T13:26:04;2.40;99.90
7194;DHT22;3638;48.820;9.244;2023-02-26T13:28:39;2.40;99.90
7194;DHT22;3638;48.820;9.244;2023-02-26T13:31:11;2.40;99.90
7194;DHT22;3638;48.820;9.244;2023-02-26T13:33:39;2.40;99.90
7194;DHT22;3638;48.820;9.244;2023-02-26T13:36:09;2.50;99.90
7194;DHT22;3638;48.820;9.244;2023-02-26T13:38:48;2.50;99.90
7194;DHT22;3638;48.820;9.244;2023-02-26T13:41:29;2.50;99.90
7194;DHT22;3638;48.820;9.244;2023-02-26T13:44:14;2.30;99.90
7194;DHT22;3638;48.820;9.244;2023-02-26T13:46:55;2.30;99.90
7194;DHT22;3638;48.820;9.244;2023-02-26T13:49:49;2.50;99.90
7194;DHT22;3638;48.820;9.244;2023-02-26T13:52:24;2.50;99.90
7194;DHT22;3638;48.820;9.244;2023-02-26T13:57:33;2.40;99.90
7194;DHT22;3638;48.820;9.244;2023-02-26T14:00:08;2.40;99.90
7194;DHT22;3638;48.820;9.244;2023-02-26T14:02:54;2.50;99.90
7194;DHT22;3638;48.820;9.244;2023-02-26T14:11:44;2.60;99.90
7194;DHT22;3638;48.820;9.244;2023-02-26T14:14:23;2.40;99.90
7194;DHT22;3638;48.820;9.244;2023-02-26T14:17:28;2.30;99.90
7194;DHT22;3638;48.820;9.244;2023-02-26T14:20:22;2.50;99.90
7194;DHT22;3638;48.820;9.244;2023-02-26T14:26:04;2.70;99.90
7194;DHT22;3638;48.820;9.244;2023-02-26T14:29:11;2.80;99.90
7194;DHT22;3638;48.820;9.244;2023-02-26T14:34:48;2.60;99.90
7194;DHT22;3638;48.820;9.244;2023-02-26T14:37:19;2.40;99.90
7194;DHT22;3638;48.820;9.244;2023-02-26T14:39:53;2.40;99.90
7194;DHT22;3638;48.820;9.244;2023-02-26T14:42:24;2.50;99.90
7194;DHT22;3638;48.820;9.244;2023-02-26T14:45:02;2.30;99.90
7194;DHT22;3638;48.820;9.244;2023-02-26T14:47:35;2.30;99.90
7194;DHT22;3638;48.820;9.244;2023-02-26T14:50:05;2.50;99.90
7194;DHT22;3638;48.820;9.244;2023-02-26T14:53:06;2.60;99.90
7194;DHT22;3638;48.820;9.244;2023-02-26T14:55:57;2.50;99.90
7194;DHT22;3638;48.820;9.244;2023-02-26T15:01:44;2.50;99.90
7194;DHT22;3638;48.820;9.244;2023-02-26T15:04:22;2.60;99.90
7194;DHT22;3638;48.820;9.244;2023-02-26T15:07:19;2.70;99.90
7194;DHT22;3638;48.820;9.244;2023-02-26T15:10:02;2.70;99.90
7194;DHT22;3638;48.820;9.244;2023-02-26T15:12:49;2.60;99.90
7194;DHT22;3638;48.820;9.244;2023-02-26T15:15:35;2.50;99.90
7194;DHT22;3638;48.820;9.244;2023-02-26T15:18:17;2.40;99.90
7194;DHT22;3638;48.820;9.244;2023-02-26T15:21:00;2.30;99.90
7194;DHT22;3638;48.820;9.244;2023-02-26T15:23:38;2.30;99.90
7194;DHT22;3638;48.820;9.244;2023-02-26T15:26:15;2.30;99.90
7194;DHT22;3638;48.820;9.244;2023-02-26T15:28:44;2.30;99.90
7194;DHT22;3638;48.820;9.244;2023-02-26T15:31:12;2.40;99.90
7194;DHT22;3638;48.820;9.244;2023-02-26T15:33:39;2.30;99.90
7194;DHT22;3638;48.820;9.244;2023-02-26T15:36:10;2.20;99.90
7194;DHT22;3638;48.820;9.244;2023-02-26T15:38:42;2.30;99.90
7194;DHT22;3638;48.820;9.244;2023-02-26T15:41:11;2.30;99.90
7194;DHT22;3638;48.820;9.244;2023-02-26T15:43:41;2.30;99.90
7194;DHT22;3638;48.820;9.244;2023-02-26T15:46:13;2.40;99.90
7194;DHT22;3638;48.820;9.244;2023-02-26T15:48:40;2.50;99.90
7194;DHT22;3638;48.820;9.244;2023-02-26T15:51:11;2.50;99.90
7194;DHT22;3638;48.820;9.244;2023-02-26T15:53:42;2.50;99.90
7194;DHT22;3638;48.820;9.244;2023-02-26T15:56:12;2.60;99.90
7194;DHT22;3638;48.820;9.244;2023-02-26T15:58:46;2.50;99.90
7194;DHT22;3638;48.820;9.244;2023-02-26T16:01:16;2.50;99.90
7194;DHT22;3638;48.820;9.244;2023-02-26T16:03:46;2.60;99.90
7194;DHT22;3638;48.820;9.244;2023-02-26T16:06:17;2.30;99.90
7194;DHT22;3638;48.820;9.244;2023-02-26T16:08:46;2.20;99.90
7194;DHT22;3638;48.820;9.244;2023-02-26T16:11:13;2.20;99.90
7194;DHT22;3638;48.820;9.244;2023-02-26T16:13:41;2.10;99.90
7194;DHT22;3638;48.820;9.244;2023-02-26T16:16:12;2.00;99.90
7194;DHT22;3638;48.820;9.244;2023-02-26T16:18:41;2.00;99.90
7194;DHT22;3638;48.820;9.244;2023-02-26T16:21:18;2.00;99.90
7194;DHT22;3638;48.820;9.244;2023-02-26T16:23:52;2.00;99.90
7194;DHT22;3638;48.820;9.244;2023-02-26T16:26:22;2.10;99.90
7194;DHT22;3638;48.820;9.244;2023-02-26T16:28:56;2.10;99.90
7194;DHT22;3638;48.820;9.244;2023-02-26T16:31:25;2.00;99.90
7194;DHT22;3638;48.820;9.244;2023-02-26T16:33:55;2.00;99.90
7194;DHT22;3638;48.820;9.244;2023-02-26T16:36:25;2.00;99.90
7194;DHT22;3638;48.820;9.244;2023-02-26T16:39:09;1.90;99.90
7194;DHT22;3638;48.820;9.244;2023-02-26T16:41:40;2.10;99.90
7194;DHT22;3638;48.820;9.244;2023-02-26T16:44:36;4.10;99.90
7194;DHT22;3638;48.820;9.244;2023-02-26T16:47:06;1.90;99.90
7194;DHT22;3638;48.820;9.244;2023-02-26T16:49:37;1.90;99.90
7194;DHT22;3638;48.820;9.244;2023-02-26T16:52:06;1.90;99.90
7194;DHT22;3638;48.820;9.244;2023-02-26T16:54:39;1.80;99.90
7194;DHT22;3638;48.820;9.244;2023-02-26T16:57:17;1.70;99.90
7194;DHT22;3638;48.820;9.244;2023-02-26T16:59:50;1.70;99.90
7194;DHT22;3638;48.820;9.244;2023-02-26T17:02:20;1.70;99.90
7194;DHT22;3638;48.820;9.244;2023-02-26T17:04:51;1.70;99.90
7194;DHT22;3638;48.820;9.244;2023-02-26T17:07:25;1.60;99.90
7194;DHT22;3638;48.820;9.244;2023-02-26T17:09:57;1.60;99.90
7194;DHT22;3638;48.820;9.244;2023-02-26T17:12:37;1.60;99.90
7194;DHT22;3638;48.820;9.244;2023-02-26T17:15:15;1.60;99.90
7194;DHT22;3638;48.820;9.244;2023-02-26T17:17:45;1.50;99.90
7194;DHT22;3638;48.820;9.244;2023-02-26T17:20:12;1.50;99.90